sensor_id;sensor_type;location;lat;lon;timestamp;P1;durP1;ratioP1;P2;durP2;ratioP2
57055;SDS011;42945;51.718;5.324;2023-12-20T00:00:41;22.75;;;4.32;;
57055;SDS011;42945;51.718;5.324;2023-12-20T00:06:32;21.80;;;4.00;;
57055;SDS011;42945;51.718;5.324;2023-12-20T00:12:20;18.60;;;3.30;;
57055;SDS011;42945;51.718;5.324;2023-12-20T00:18:08;22.85;;;3.55;;
57055;SDS011;42945;51.718;5.324;2023-12-20T00:23:56;27.17;;;3.60;;
57055;SDS011;42945;51.718;5.324;2023-12-20T00:29:44;19.65;;;3.10;;
57055;SDS011;42945;51.718;5.324;2023-12-20T00:35:35;17.58;;;2.67;;
57055;SDS011;42945;51.718;5.324;2023-12-20T00:41:24;24.38;;;2.53;;
57055;SDS011;42945;51.718;5.324;2023-12-20T00:47:11;29.80;;;3.42;;
57055;SDS011;42945;51.718;5.324;2023-12-20T00:52:59;19.35;;;2.60;;
57055;SDS011;42945;51.718;5.324;2023-12-20T00:58:46;14.68;;;2.65;;
57055;SDS011;42945;51.718;5.324;2023-12-20T01:04:34;21.48;;;2.80;;
57055;SDS011;42945;51.718;5.324;2023-12-20T01:10:22;20.23;;;2.45;;
57055;SDS011;42945;51.718;5.324;2023-12-20T01:16:10;24.27;;;2.65;;
57055;SDS011;42945;51.718;5.324;2023-12-20T01:21:59;17.90;;;2.55;;
57055;SDS011;42945;51.718;5.324;2023-12-20T01:27:46;20.98;;;2.80;;
57055;SDS011;42945;51.718;5.324;2023-12-20T01:33:34;23.05;;;2.90;;
57055;SDS011;42945;51.718;5.324;2023-12-20T01:39:22;20.25;;;2.55;;
57055;SDS011;42945;51.718;5.324;2023-12-20T01:45:10;20.10;;;2.28;;
57055;SDS011;42945;51.718;5.324;2023-12-20T01:54:33;19.95;;;3.00;;
57055;SDS011;42945;51.718;5.324;2023-12-20T02:00:22;18.58;;;3.13;;
57055;SDS011;42945;51.718;5.324;2023-12-20T02:06:15;21.15;;;3.35;;
57055;SDS011;42945;51.718;5.324;2023-12-20T02:12:05;22.05;;;2.90;;
57055;SDS011;42945;51.718;5.324;2023-12-20T02:17:52;31.33;;;3.13;;
57055;SDS011;42945;51.718;5.324;2023-12-20T02:23:41;30.85;;;3.63;;
57055;SDS011;42945;51.718;5.324;2023-12-20T02:29:29;23.17;;;3.95;;
57055;SDS011;42945;51.718;5.324;2023-12-20T02:35:17;25.52;;;3.40;;
57055;SDS011;42945;51.718;5.324;2023-12-20T02:41:05;32.63;;;3.90;;
57055;SDS011;42945;51.718;5.324;2023-12-20T02:46:52;32.45;;;4.38;;
57055;SDS011;42945;51.718;5.324;2023-12-20T02:56:28;31.13;;;4.82;;
57055;SDS011;42945;51.718;5.324;2023-12-20T03:02:16;30.52;;;4.22;;
57055;SDS011;42945;51.718;5.324;2023-12-20T03:08:04;31.38;;;4.13;;
57055;SDS011;42945;51.718;5.324;2023-12-20T03:13:53;28.73;;;4.10;;
57055;SDS011;42945;51.718;5.324;2023-12-20T03:19:40;24.90;;;3.80;;
57055;SDS011;42945;51.718;5.324;2023-12-20T03:25:27;24.60;;;4.50;;
57055;SDS011;42945;51.718;5.324;2023-12-20T03:31:15;25.92;;;4.03;;
57055;SDS011;42945;51.718;5.324;2023-12-20T03:37:03;34.63;;;3.80;;
57055;SDS011;42945;51.718;5.324;2023-12-20T03:42:54;26.63;;;4.25;;
57055;SDS011;42945;51.718;5.324;2023-12-20T03:48:42;29.52;;;4.55;;
57055;SDS011;42945;51.718;5.324;2023-12-20T03:58:05;33.25;;;4.68;;
57055;SDS011;42945;51.718;5.324;2023-12-20T04:03:53;24.13;;;3.80;;
57055;SDS011;42945;51.718;5.324;2023-12-20T04:09:40;30.25;;;4.07;;
57055;SDS011;42945;51.718;5.324;2023-12-20T04:15:28;26.75;;;3.92;;
57055;SDS011;42945;51.718;5.324;2023-12-20T04:21:16;35.58;;;4.60;;
57055;SDS011;42945;51.718;5.324;2023-12-20T04:27:05;25.77;;;4.15;;
57055;SDS011;42945;51.718;5.324;2023-12-20T04:32:54;26.25;;;3.30;;
57055;SDS011;42945;51.718;5.324;2023-12-20T04:38:43;26.98;;;4.15;;
57055;SDS011;42945;51.718;5.324;2023-12-20T04:44:37;33.13;;;3.90;;
57055;SDS011;42945;51.718;5.324;2023-12-20T04:50:25;27.75;;;3.95;;
57055;SDS011;42945;51.718;5.324;2023-12-20T04:59:48;26.73;;;4.18;;
57055;SDS011;42945;51.718;5.324;2023-12-20T05:05:36;19.88;;;3.13;;
57055;SDS011;42945;51.718;5.324;2023-12-20T05:11:23;25.92;;;3.70;;
57055;SDS011;42945;51.718;5.324;2023-12-20T05:17:10;25.08;;;3.72;;
57055;SDS011;42945;51.718;5.324;2023-12-20T05:22:59;24.13;;;3.33;;
57055;SDS011;42945;51.718;5.324;2023-12-20T05:28:47;23.70;;;3.50;;
57055;SDS011;42945;51.718;5.324;2023-12-20T05:34:38;23.65;;;3.55;;
57055;SDS011;42945;51.718;5.324;2023-12-20T05:40:26;24.77;;;3.08;;
57055;SDS011;42945;51.718;5.324;2023-12-20T05:46:15;26.35;;;3.45;;
57055;SDS011;42945;51.718;5.324;2023-12-20T05:52:03;25.80;;;3.83;;
57055;SDS011;42945;51.718;5.324;2023-12-20T06:01:39;26.75;;;3.88;;
57055;SDS011;42945;51.718;5.324;2023-12-20T06:07:27;30.20;;;3.47;;
57055;SDS011;42945;51.718;5.324;2023-12-20T06:13:14;34.47;;;3.78;;
57055;SDS011;42945;51.718;5.324;2023-12-20T06:19:03;27.75;;;3.50;;
57055;SDS011;42945;51.718;5.324;2023-12-20T06:24:50;25.05;;;3.53;;
57055;SDS011;42945;51.718;5.324;2023-12-20T06:30:38;30.60;;;3.55;;
57055;SDS011;42945;51.718;5.324;2023-12-20T06:36:26;28.63;;;4.70;;
57055;SDS011;42945;51.718;5.324;2023-12-20T06:42:16;24.55;;;4.38;;
57055;SDS011;42945;51.718;5.324;2023-12-20T06:48:04;28.42;;;4.55;;
57055;SDS011;42945;51.718;5.324;2023-12-20T06:53:53;28.02;;;3.63;;
57055;SDS011;42945;51.718;5.324;2023-12-20T06:59:41;29.02;;;4.05;;
57055;SDS011;42945;51.718;5.324;2023-12-20T07:05:29;24.48;;;3.38;;
57055;SDS011;42945;51.718;5.324;2023-12-20T07:11:17;34.60;;;3.83;;
57055;SDS011;42945;51.718;5.324;2023-12-20T07:17:06;23.25;;;3.53;;
57055;SDS011;42945;51.718;5.324;2023-12-20T07:22:58;28.88;;;2.92;;
57055;SDS011;42945;51.718;5.324;2023-12-20T07:28:46;25.73;;;4.07;;
57055;SDS011;42945;51.718;5.324;2023-12-20T07:34:39;26.48;;;3.58;;
57055;SDS011;42945;51.718;5.324;2023-12-20T07:40:27;22.52;;;3.75;;
57055;SDS011;42945;51.718;5.324;2023-12-20T07:46:14;21.92;;;3.42;;
57055;SDS011;42945;51.718;5.324;2023-12-20T07:52:02;26.45;;;3.95;;
57055;SDS011;42945;51.718;5.324;2023-12-20T07:57:49;30.63;;;4.00;;
57055;SDS011;42945;51.718;5.324;2023-12-20T08:03:37;24.02;;;3.83;;
57055;SDS011;42945;51.718;5.324;2023-12-20T08:09:25;23.42;;;3.50;;
57055;SDS011;42945;51.718;5.324;2023-12-20T08:15:14;28.40;;;4.03;;
57055;SDS011;42945;51.718;5.324;2023-12-20T08:21:02;32.45;;;3.97;;
57055;SDS011;42945;51.718;5.324;2023-12-20T08:26:51;25.15;;;3.33;;
57055;SDS011;42945;51.718;5.324;2023-12-20T08:32:40;21.98;;;3.65;;
57055;SDS011;42945;51.718;5.324;2023-12-20T08:38:27;27.17;;;3.63;;
57055;SDS011;42945;51.718;5.324;2023-12-20T08:44:16;28.70;;;3.50;;
57055;SDS011;42945;51.718;5.324;2023-12-20T08:56:48;28.50;;;4.43;;
57055;SDS011;42945;51.718;5.324;2023-12-20T09:06:37;18.27;;;3.03;;
57055;SDS011;42945;51.718;5.324;2023-12-20T09:12:25;22.73;;;3.13;;
57055;SDS011;42945;51.718;5.324;2023-12-20T09:18:13;24.80;;;3.55;;
57055;SDS011;42945;51.718;5.324;2023-12-20T09:24:02;21.40;;;3.40;;
57055;SDS011;42945;51.718;5.324;2023-12-20T09:29:50;20.17;;;2.92;;
57055;SDS011;42945;51.718;5.324;2023-12-20T09:35:41;26.77;;;3.67;;
57055;SDS011;42945;51.718;5.324;2023-12-20T09:41:31;25.70;;;3.88;;
57055;SDS011;42945;51.718;5.324;2023-12-20T09:47:24;28.20;;;3.53;;
57055;SDS011;42945;51.718;5.324;2023-12-20T09:53:14;26.38;;;3.70;;
57055;SDS011;42945;51.718;5.324;2023-12-20T09:59:04;22.23;;;3.75;;
57055;SDS011;42945;51.718;5.324;2023-12-20T10:08:47;20.00;;;3.45;;
57055;SDS011;42945;51.718;5.324;2023-12-20T10:14:34;17.33;;;3.78;;
57055;SDS011;42945;51.718;5.324;2023-12-20T10:20:22;21.63;;;4.13;;
57055;SDS011;42945;51.718;5.324;2023-12-20T10:26:18;21.83;;;3.08;;
57055;SDS011;42945;51.718;5.324;2023-12-20T10:32:21;26.08;;;3.60;;
57055;SDS011;42945;51.718;5.324;2023-12-20T10:38:10;24.10;;;3.42;;
57055;SDS011;42945;51.718;5.324;2023-12-20T10:44:03;22.63;;;2.90;;
57055;SDS011;42945;51.718;5.324;2023-12-20T10:49:54;22.05;;;2.95;;
57055;SDS011;42945;51.718;5.324;2023-12-20T10:55:43;17.67;;;2.33;;
57055;SDS011;42945;51.718;5.324;2023-12-20T11:01:31;21.10;;;2.90;;
57055;SDS011;42945;51.718;5.324;2023-12-20T11:11:29;26.42;;;3.78;;
57055;SDS011;42945;51.718;5.324;2023-12-20T11:17:23;22.63;;;2.50;;
57055;SDS011;42945;51.718;5.324;2023-12-20T11:23:12;18.67;;;2.90;;
57055;SDS011;42945;51.718;5.324;2023-12-20T11:29:43;16.65;;;2.17;;
57055;SDS011;42945;51.718;5.324;2023-12-20T11:35:23;19.45;;;2.40;;
57055;SDS011;42945;51.718;5.324;2023-12-20T11:41:12;27.05;;;2.85;;
57055;SDS011;42945;51.718;5.324;2023-12-20T11:46:59;19.83;;;2.40;;
57055;SDS011;42945;51.718;5.324;2023-12-20T11:52:48;21.23;;;2.22;;
57055;SDS011;42945;51.718;5.324;2023-12-20T11:58:37;27.65;;;3.22;;
57055;SDS011;42945;51.718;5.324;2023-12-20T12:04:25;20.27;;;2.97;;
57055;SDS011;42945;51.718;5.324;2023-12-20T12:14:12;23.08;;;3.58;;
57055;SDS011;42945;51.718;5.324;2023-12-20T12:20:02;23.10;;;2.70;;
57055;SDS011;42945;51.718;5.324;2023-12-20T12:25:52;19.25;;;2.63;;
57055;SDS011;42945;51.718;5.324;2023-12-20T12:31:39;19.92;;;2.42;;
57055;SDS011;42945;51.718;5.324;2023-12-20T12:37:27;18.05;;;2.67;;
57055;SDS011;42945;51.718;5.324;2023-12-20T12:43:14;19.33;;;2.13;;
57055;SDS011;42945;51.718;5.324;2023-12-20T12:49:02;21.37;;;2.67;;
57055;SDS011;42945;51.718;5.324;2023-12-20T12:54:51;27.85;;;3.70;;
57055;SDS011;42945;51.718;5.324;2023-12-20T13:00:40;23.15;;;3.10;;
57055;SDS011;42945;51.718;5.324;2023-12-20T13:06:28;22.25;;;3.83;;
57055;SDS011;42945;51.718;5.324;2023-12-20T13:16:11;24.42;;;3.03;;
57055;SDS011;42945;51.718;5.324;2023-12-20T13:22:00;28.92;;;3.35;;
57055;SDS011;42945;51.718;5.324;2023-12-20T13:27:47;22.00;;;3.25;;
57055;SDS011;42945;51.718;5.324;2023-12-20T13:33:35;19.00;;;3.13;;
57055;SDS011;42945;51.718;5.324;2023-12-20T13:39:25;24.73;;;2.80;;
57055;SDS011;42945;51.718;5.324;2023-12-20T13:45:14;16.75;;;2.47;;
57055;SDS011;42945;51.718;5.324;2023-12-20T13:51:02;19.95;;;2.95;;
57055;SDS011;42945;51.718;5.324;2023-12-20T13:56:50;25.38;;;2.70;;
57055;SDS011;42945;51.718;5.324;2023-12-20T14:02:38;15.02;;;2.53;;
57055;SDS011;42945;51.718;5.324;2023-12-20T14:08:25;20.80;;;2.72;;
57055;SDS011;42945;51.718;5.324;2023-12-20T14:17:50;22.98;;;2.45;;
57055;SDS011;42945;51.718;5.324;2023-12-20T14:23:39;20.65;;;2.65;;
57055;SDS011;42945;51.718;5.324;2023-12-20T14:29:27;19.52;;;2.72;;
57055;SDS011;42945;51.718;5.324;2023-12-20T14:35:15;18.10;;;2.58;;
57055;SDS011;42945;51.718;5.324;2023-12-20T14:41:03;17.80;;;2.88;;
57055;SDS011;42945;51.718;5.324;2023-12-20T14:46:53;17.65;;;2.40;;
57055;SDS011;42945;51.718;5.324;2023-12-20T14:52:40;20.55;;;2.72;;
57055;SDS011;42945;51.718;5.324;2023-12-20T14:58:28;18.25;;;2.50;;
57055;SDS011;42945;51.718;5.324;2023-12-20T15:04:17;21.65;;;3.15;;
57055;SDS011;42945;51.718;5.324;2023-12-20T15:10:04;18.40;;;2.83;;
57055;SDS011;42945;51.718;5.324;2023-12-20T15:19:41;20.20;;;2.47;;
57055;SDS011;42945;51.718;5.324;2023-12-20T15:25:37;19.95;;;2.28;;
57055;SDS011;42945;51.718;5.324;2023-12-20T15:31:24;14.30;;;2.33;;
57055;SDS011;42945;51.718;5.324;2023-12-20T15:37:13;15.73;;;2.30;;
57055;SDS011;42945;51.718;5.324;2023-12-20T15:43:01;23.48;;;3.05;;
57055;SDS011;42945;51.718;5.324;2023-12-20T15:48:49;20.52;;;2.50;;
57055;SDS011;42945;51.718;5.324;2023-12-20T15:54:39;15.82;;;2.38;;
57055;SDS011;42945;51.718;5.324;2023-12-20T16:00:29;16.70;;;2.13;;
57055;SDS011;42945;51.718;5.324;2023-12-20T16:06:18;22.92;;;3.38;;
57055;SDS011;42945;51.718;5.324;2023-12-20T16:12:10;18.90;;;2.67;;
57055;SDS011;42945;51.718;5.324;2023-12-20T16:21:53;15.35;;;2.17;;
57055;SDS011;42945;51.718;5.324;2023-12-20T16:27:42;14.20;;;2.00;;
57055;SDS011;42945;51.718;5.324;2023-12-20T16:33:30;21.98;;;3.10;;
57055;SDS011;42945;51.718;5.324;2023-12-20T16:39:18;19.88;;;2.50;;
57055;SDS011;42945;51.718;5.324;2023-12-20T16:45:08;27.60;;;3.63;;
57055;SDS011;42945;51.718;5.324;2023-12-20T16:50:56;20.95;;;3.05;;
57055;SDS011;42945;51.718;5.324;2023-12-20T16:56:44;19.73;;;3.05;;
57055;SDS011;42945;51.718;5.324;2023-12-20T17:02:32;20.60;;;3.45;;
57055;SDS011;42945;51.718;5.324;2023-12-20T17:08:21;19.58;;;3.17;;
57055;SDS011;42945;51.718;5.324;2023-12-20T17:14:09;14.35;;;3.17;;
57055;SDS011;42945;51.718;5.324;2023-12-20T17:23:53;20.90;;;3.42;;
57055;SDS011;42945;51.718;5.324;2023-12-20T17:29:41;18.40;;;3.03;;
57055;SDS011;42945;51.718;5.324;2023-12-20T17:35:28;23.90;;;3.70;;
57055;SDS011;42945;51.718;5.324;2023-12-20T17:41:16;18.77;;;3.95;;
57055;SDS011;42945;51.718;5.324;2023-12-20T17:47:04;25.65;;;4.40;;
57055;SDS011;42945;51.718;5.324;2023-12-20T17:52:53;19.27;;;4.60;;
57055;SDS011;42945;51.718;5.324;2023-12-20T17:58:46;21.17;;;3.65;;
57055;SDS011;42945;51.718;5.324;2023-12-20T18:04:40;17.20;;;3.42;;
57055;SDS011;42945;51.718;5.324;2023-12-20T18:10:30;13.27;;;3.85;;
57055;SDS011;42945;51.718;5.324;2023-12-20T18:16:17;18.38;;;4.55;;
57055;SDS011;42945;51.718;5.324;2023-12-20T18:26:01;12.48;;;2.97;;
57055;SDS011;42945;51.718;5.324;2023-12-20T18:38:33;14.40;;;3.10;;
57055;SDS011;42945;51.718;5.324;2023-12-20T18:44:21;17.27;;;3.08;;
57055;SDS011;42945;51.718;5.324;2023-12-20T18:50:09;16.52;;;3.40;;
57055;SDS011;42945;51.718;5.324;2023-12-20T18:56:02;22.20;;;5.00;;
57055;SDS011;42945;51.718;5.324;2023-12-20T19:01:50;8.57;;;2.50;;
57055;SDS011;42945;51.718;5.324;2023-12-20T19:07:39;17.38;;;3.13;;
57055;SDS011;42945;51.718;5.324;2023-12-20T19:13:29;13.32;;;2.40;;
57055;SDS011;42945;51.718;5.324;2023-12-20T19:19:19;14.40;;;2.88;;
57055;SDS011;42945;51.718;5.324;2023-12-20T19:29:09;12.52;;;3.08;;
57055;SDS011;42945;51.718;5.324;2023-12-20T19:34:56;17.98;;;3.22;;
57055;SDS011;42945;51.718;5.324;2023-12-20T19:40:45;11.15;;;3.13;;
57055;SDS011;42945;51.718;5.324;2023-12-20T19:46:34;11.35;;;2.70;;
57055;SDS011;42945;51.718;5.324;2023-12-20T19:52:22;13.60;;;2.63;;
57055;SDS011;42945;51.718;5.324;2023-12-20T19:58:11;10.98;;;2.78;;
57055;SDS011;42945;51.718;5.324;2023-12-20T20:03:59;16.75;;;2.97;;
57055;SDS011;42945;51.718;5.324;2023-12-20T20:09:47;13.10;;;2.55;;
57055;SDS011;42945;51.718;5.324;2023-12-20T20:15:37;14.00;;;2.00;;
57055;SDS011;42945;51.718;5.324;2023-12-20T20:21:25;12.80;;;2.47;;
57055;SDS011;42945;51.718;5.324;2023-12-20T20:31:07;9.27;;;2.40;;
57055;SDS011;42945;51.718;5.324;2023-12-20T20:36:55;15.45;;;3.13;;
57055;SDS011;42945;51.718;5.324;2023-12-20T20:42:44;14.13;;;2.80;;
57055;SDS011;42945;51.718;5.324;2023-12-20T20:48:35;15.25;;;2.97;;
57055;SDS011;42945;51.718;5.324;2023-12-20T20:54:24;17.95;;;2.92;;
57055;SDS011;42945;51.718;5.324;2023-12-20T21:00:14;13.65;;;2.80;;
57055;SDS011;42945;51.718;5.324;2023-12-20T21:06:02;12.93;;;3.22;;
57055;SDS011;42945;51.718;5.324;2023-12-20T21:11:51;17.23;;;2.67;;
57055;SDS011;42945;51.718;5.324;2023-12-20T21:17:41;14.00;;;3.10;;
57055;SDS011;42945;51.718;5.324;2023-12-20T21:23:31;20.75;;;3.42;;
57055;SDS011;42945;51.718;5.324;2023-12-20T21:33:15;16.45;;;3.03;;
57055;SDS011;42945;51.718;5.324;2023-12-20T21:39:03;12.48;;;2.65;;
57055;SDS011;42945;51.718;5.324;2023-12-20T21:44:52;15.75;;;3.17;;
57055;SDS011;42945;51.718;5.324;2023-12-20T21:50:40;15.40;;;2.47;;
57055;SDS011;42945;51.718;5.324;2023-12-20T21:56:29;18.85;;;3.08;;
57055;SDS011;42945;51.718;5.324;2023-12-20T22:02:17;12.70;;;2.85;;
57055;SDS011;42945;51.718;5.324;2023-12-20T22:08:05;15.63;;;3.03;;
57055;SDS011;42945;51.718;5.324;2023-12-20T22:13:54;16.23;;;3.15;;
57055;SDS011;42945;51.718;5.324;2023-12-20T22:19:42;18.10;;;3.05;;
57055;SDS011;42945;51.718;5.324;2023-12-20T22:25:30;19.15;;;3.55;;
57055;SDS011;42945;51.718;5.324;2023-12-20T22:35:11;15.80;;;3.20;;
57055;SDS011;42945;51.718;5.324;2023-12-20T22:41:00;13.77;;;2.20;;
57055;SDS011;42945;51.718;5.324;2023-12-20T22:46:48;19.80;;;3.20;;
57055;SDS011;42945;51.718;5.324;2023-12-20T22:52:35;7.65;;;2.65;;
57055;SDS011;42945;51.718;5.324;2023-12-20T22:58:24;14.35;;;2.65;;
57055;SDS011;42945;51.718;5.324;2023-12-20T23:04:14;23.23;;;3.05;;
57055;SDS011;42945;51.718;5.324;2023-12-20T23:10:02;19.20;;;2.63;;
57055;SDS011;42945;51.718;5.324;2023-12-20T23:15:50;17.35;;;2.90;;
57055;SDS011;42945;51.718;5.324;2023-12-20T23:21:38;15.60;;;2.83;;
57055;SDS011;42945;51.718;5.324;2023-12-20T23:27:27;11.80;;;2.80;;
57055;SDS011;42945;51.718;5.324;2023-12-20T23:33:16;12.60;;;2.85;;
57055;SDS011;42945;51.718;5.324;2023-12-20T23:39:05;16.10;;;3.03;;
57055;SDS011;42945;51.718;5.324;2023-12-20T23:44:52;16.25;;;2.60;;
57055;SDS011;42945;51.718;5.324;2023-12-20T23:50:40;15.45;;;2.42;;
57055;SDS011;42945;51.718;5.324;2023-12-20T23:56:29;17.02;;;2.70;;
